Time;durP1;ratioP1;P1;durP2;ratioP2;P2;SDS_P1;SDS_P2;PMS_P1;PMS_P2;Temp;Humidity;BMP_temperature;BMP_pressure;BME280_temperature;BME280_humidity;BME280_pressure;Samples;Min_cycle;Max_cycle;Signal;HPM_P1;HPM_P2
2023/07/16 00:01:54;;;;;;;2.20;2.00;;;;;;;22.20;69.27;98948.04;101232;294;27045;-31
2023/07/16 00:04:20;;;;;;;3.00;2.40;;;;;;;22.12;69.11;98945.55;101129;294;25795;-31
2023/07/16 00:06:45;;;;;;;1.70;1.60;;;;;;;22.11;69.81;98943.20;101084;294;22684;-36
2023/07/16 00:09:11;;;;;;;2.70;2.10;;;;;;;22.12;70.40;98941.44;101202;294;22879;-37
2023/07/16 00:11:37;;;;;;;4.60;2.70;;;;;;;22.06;70.55;98937.29;101170;294;24111;-36
2023/07/16 00:14:02;;;;;;;3.40;2.30;;;;;;;22.02;71.11;98933.86;101059;294;24073;-36
2023/07/16 00:16:28;;;;;;;2.00;1.70;;;;;;;21.98;70.89;98938.27;101139;294;22634;-30
2023/07/16 00:18:54;;;;;;;2.60;2.40;;;;;;;21.95;70.82;98933.02;101132;294;22995;-37
2023/07/16 00:21:20;;;;;;;7.50;2.40;;;;;;;21.87;71.18;98933.45;101101;294;24216;-30
2023/07/16 00:23:46;;;;;;;2.30;2.10;;;;;;;21.83;70.36;98934.41;101116;283;24416;-30
2023/07/16 00:26:12;;;;;;;4.40;2.40;;;;;;;21.77;70.95;98929.58;101107;294;22997;-30
2023/07/16 00:28:38;;;;;;;3.70;2.20;;;;;;;21.72;70.82;98937.47;101319;294;22883;-29
2023/07/16 00:31:04;;;;;;;5.30;3.40;;;;;;;21.69;71.26;98929.23;101279;294;22574;-30
2023/07/16 00:33:29;;;;;;;3.60;3.00;;;;;;;21.67;71.67;98929.02;100998;294;22848;-32
2023/07/16 00:35:55;;;;;;;4.40;2.80;;;;;;;21.59;72.65;98926.34;101252;294;27080;-36
2023/07/16 01:18:34;;;;;;;4.80;3.70;;;;;;;21.07;76.74;98903.50;101188;296;557377;-31
2023/07/16 01:21:00;;;;;;;4.80;3.30;;;;;;;21.23;76.01;98903.48;101000;296;433037;-38
2023/07/16 01:23:50;;;;;;;2.80;2.50;;;;;;;21.23;75.97;98901.36;101336;296;22666;-31
2023/07/16 01:26:39;;;;;;;4.60;3.30;;;;;;;21.21;76.04;98900.99;101343;285;22892;-36
2023/07/16 01:29:29;;;;;;;11.30;2.20;;;;;;;-38.48;45.29;59250.79;99907;297;1002173;-33
2023/07/16 01:31:56;;;;;;;5.10;4.60;;;;;;;-128.00;-1.00;-1.00;97970;285;1002701;-31
2023/07/16 01:34:22;;;;;;;3.60;3.10;;;;;;;-128.00;-1.00;-1.00;97894;285;1005001;-35
2023/07/16 01:36:48;;;;;;;7.90;2.30;;;;;;;-128.00;-1.00;-1.00;98004;285;1002593;-37
2023/07/16 01:39:13;;;;;;;12.70;3.70;;;;;;;-128.00;-1.00;-1.00;98039;296;1002421;-37
2023/07/16 01:41:39;;;;;;;5.20;2.90;;;;;;;-128.00;-1.00;-1.00;97989;285;1003057;-35
2023/07/16 01:44:05;;;;;;;4.70;4.30;;;;;;;-128.00;-1.00;-1.00;97916;285;1003620;-35
2023/07/16 01:46:30;;;;;;;4.70;3.40;;;;;;;-128.00;-1.00;-1.00;97967;285;1003867;-33
2023/07/16 01:48:56;;;;;;;4.10;3.40;;;;;;;-128.00;-1.00;-1.00;97960;285;1002818;-32
2023/07/16 01:51:21;;;;;;;5.50;3.10;;;;;;;-128.00;-1.00;-1.00;97987;296;1004188;-31
2023/07/16 01:53:47;;;;;;;6.80;3.80;;;;;;;-128.00;-1.00;-1.00;97809;296;1003398;-35
2023/07/16 01:56:13;;;;;;;3.70;3.40;;;;;;;-128.00;-1.00;-1.00;97823;285;1003082;-31
2023/07/16 01:58:38;;;;;;;3.50;2.70;;;;;;;-128.00;-1.00;-1.00;97785;296;1005023;-35
2023/07/16 02:01:04;;;;;;;3.70;3.30;;;;;;;-128.00;-1.00;-1.00;97933;297;1002270;-34
2023/07/16 02:03:29;;;;;;;8.30;3.40;;;;;;;-128.00;-1.00;-1.00;97871;297;1002972;-31
2023/07/16 02:05:55;;;;;;;4.30;3.90;;;;;;;-128.00;-1.00;-1.00;97956;296;1003099;-36
2023/07/16 02:08:20;;;;;;;4.30;3.40;;;;;;;-128.00;-1.00;-1.00;97867;285;1003212;-35
2023/07/16 02:10:49;;;;;;;3.10;2.70;;;;;;;-128.00;-1.00;-1.00;97963;297;1004695;-35
2023/07/16 02:13:15;;;;;;;4.90;4.20;;;;;;;-128.00;-1.00;-1.00;97896;297;1002933;-35
2023/07/16 02:15:40;;;;;;;4.50;3.30;;;;;;;-128.00;-1.00;-1.00;97912;296;1003792;-33
2023/07/16 02:18:06;;;;;;;5.20;3.70;;;;;;;-128.00;-1.00;-1.00;97888;297;1002929;-33
2023/07/16 02:20:32;;;;;;;3.90;3.50;;;;;;;-128.00;-1.00;-1.00;97934;297;1003024;-32
2023/07/16 02:22:58;;;;;;;3.00;2.70;;;;;;;-128.00;-1.00;-1.00;97921;285;1003485;-32
2023/07/16 02:25:23;;;;;;;3.60;3.10;;;;;;;-128.00;-1.00;-1.00;98009;297;1003448;-30
2023/07/16 02:27:49;;;;;;;3.80;3.40;;;;;;;-128.00;-1.00;-1.00;97973;285;1003792;-35
2023/07/16 02:30:15;;;;;;;5.80;5.20;;;;;;;-128.00;-1.00;-1.00;97706;297;1002799;-35
2023/07/16 02:32:41;;;;;;;5.70;3.00;;;;;;;-128.00;-1.00;-1.00;97765;285;1003088;-31
2023/07/16 02:35:07;;;;;;;6.20;3.30;;;;;;;-128.00;-1.00;-1.00;97735;285;1003853;-33
2023/07/16 02:37:33;;;;;;;5.30;4.40;;;;;;;-128.00;-1.00;-1.00;97738;285;1003029;-31
2023/07/16 02:39:58;;;;;;;8.90;4.20;;;;;;;-128.00;-1.00;-1.00;97849;285;1003105;-31
2023/07/16 02:42:24;;;;;;;6.20;4.50;;;;;;;-128.00;-1.00;-1.00;97831;285;1002574;-30
2023/07/16 02:44:50;;;;;;;6.80;4.80;;;;;;;-128.00;-1.00;-1.00;97795;296;1003495;-36
2023/07/16 02:47:15;;;;;;;5.60;4.40;;;;;;;-128.00;-1.00;-1.00;97908;296;1003844;-36
2023/07/16 02:49:41;;;;;;;4.00;3.70;;;;;;;-128.00;-1.00;-1.00;97821;296;1005106;-34
2023/07/16 02:52:07;;;;;;;10.80;5.00;;;;;;;-128.00;-1.00;-1.00;97833;297;1003616;-35
2023/07/16 02:54:33;;;;;;;4.10;3.80;;;;;;;-128.00;-1.00;-1.00;97845;285;1002637;-32
2023/07/16 02:56:58;;;;;;;9.60;5.00;;;;;;;-128.00;-1.00;-1.00;97769;297;1003825;-33
2023/07/16 02:59:24;;;;;;;5.90;4.50;;;;;;;-128.00;-1.00;-1.00;97803;296;1003557;-30
2023/07/16 03:01:50;;;;;;;4.40;3.70;;;;;;;-128.00;-1.00;-1.00;97797;297;1003067;-35
2023/07/16 03:04:16;;;;;;;6.50;3.80;;;;;;;-128.00;-1.00;-1.00;97761;285;1003101;-38
2023/07/16 03:06:42;;;;;;;4.70;3.20;;;;;;;-128.00;-1.00;-1.00;97847;296;1004382;-32
2023/07/16 03:09:07;;;;;;;4.40;3.80;;;;;;;-128.00;-1.00;-1.00;97726;285;1003321;-32
2023/07/16 03:11:33;;;;;;;3.40;2.80;;;;;;;-128.00;-1.00;-1.00;97805;285;1003213;-31
2023/07/16 03:13:59;;;;;;;5.20;3.90;;;;;;;-128.00;-1.00;-1.00;97926;285;1004563;-35
2023/07/16 03:16:24;;;;;;;5.60;4.70;;;;;;;-128.00;-1.00;-1.00;97799;296;1004352;-32
2023/07/16 03:18:50;;;;;;;4.20;3.90;;;;;;;-128.00;-1.00;-1.00;97732;299;1003366;-31
2023/07/16 03:21:15;;;;;;;5.80;5.30;;;;;;;-128.00;-1.00;-1.00;97960;285;1003044;-33
2023/07/16 03:23:41;;;;;;;6.10;5.20;;;;;;;-128.00;-1.00;-1.00;97770;285;1003429;-32
2023/07/16 03:26:07;;;;;;;6.20;4.40;;;;;;;-128.00;-1.00;-1.00;97821;285;1004161;-32
2023/07/16 03:28:32;;;;;;;4.50;4.10;;;;;;;-128.00;-1.00;-1.00;97709;285;1002905;-35
2023/07/16 03:30:58;;;;;;;4.70;4.20;;;;;;;-128.00;-1.00;-1.00;97795;296;1003499;-35
2023/07/16 03:33:23;;;;;;;4.10;3.70;;;;;;;-128.00;-1.00;-1.00;97779;285;1003091;-37
2023/07/16 03:35:49;;;;;;;9.60;5.20;;;;;;;-128.00;-1.00;-1.00;97829;296;1002833;-35
2023/07/16 03:38:15;;;;;;;5.00;4.40;;;;;;;-128.00;-1.00;-1.00;97829;285;1005109;-31
2023/07/16 03:40:47;;;;;;;3.90;3.60;;;;;;;-128.00;-1.00;-1.00;97973;285;1003344;-31
2023/07/16 03:43:12;;;;;;;6.40;3.50;;;;;;;-128.00;-1.00;-1.00;97811;296;1004168;-33
2023/07/16 03:45:38;;;;;;;6.10;5.00;;;;;;;-128.00;-1.00;-1.00;97806;297;1003413;-33
2023/07/16 03:48:04;;;;;;;6.10;5.30;;;;;;;-128.00;-1.00;-1.00;97861;285;1003596;-32
2023/07/16 03:50:30;;;;;;;4.30;3.60;;;;;;;-128.00;-1.00;-1.00;97794;285;1003744;-32
2023/07/16 03:52:55;;;;;;;6.10;4.60;;;;;;;-128.00;-1.00;-1.00;97797;296;1003341;-35
2023/07/16 03:55:21;;;;;;;4.70;4.20;;;;;;;-128.00;-1.00;-1.00;97713;296;1003014;-31
2023/07/16 03:57:47;;;;;;;5.00;3.90;;;;;;;-128.00;-1.00;-1.00;97823;297;1003248;-30
2023/07/16 04:00:13;;;;;;;5.10;4.70;;;;;;;-128.00;-1.00;-1.00;97793;285;1003005;-37
2023/07/16 04:02:38;;;;;;;5.80;5.20;;;;;;;-128.00;-1.00;-1.00;97843;297;1004351;-31
2023/07/16 04:05:04;;;;;;;5.00;4.60;;;;;;;-128.00;-1.00;-1.00;97816;296;1003078;-35
2023/07/16 04:07:30;;;;;;;7.90;5.00;;;;;;;-128.00;-1.00;-1.00;97785;285;1003476;-31
2023/07/16 04:09:55;;;;;;;5.30;4.60;;;;;;;-128.00;-1.00;-1.00;97740;296;1003911;-34
2023/07/16 04:12:21;;;;;;;6.80;5.40;;;;;;;-128.00;-1.00;-1.00;97752;285;1004756;-33
2023/07/16 04:14:47;;;;;;;7.40;4.80;;;;;;;-128.00;-1.00;-1.00;97779;285;1002893;-32
2023/07/16 04:17:13;;;;;;;5.10;4.70;;;;;;;-128.00;-1.00;-1.00;97917;285;1002792;-33
2023/07/16 04:19:39;;;;;;;9.60;4.30;;;;;;;-128.00;-1.00;-1.00;97973;285;1003992;-34
2023/07/16 04:22:05;;;;;;;5.20;4.00;;;;;;;-128.00;-1.00;-1.00;97782;285;1003315;-31
2023/07/16 04:24:30;;;;;;;4.90;4.60;;;;;;;-128.00;-1.00;-1.00;97952;285;1004066;-33
2023/07/16 04:26:56;;;;;;;5.20;4.30;;;;;;;-128.00;-1.00;-1.00;97772;297;1003413;-36
2023/07/16 04:29:21;;;;;;;9.60;4.30;;;;;;;-128.00;-1.00;-1.00;97829;285;1003507;-38
2023/07/16 04:31:47;;;;;;;4.70;4.30;;;;;;;-128.00;-1.00;-1.00;97908;285;1005059;-35
2023/07/16 04:34:13;;;;;;;4.70;4.30;;;;;;;-128.00;-1.00;-1.00;97779;285;1003196;-32
2023/07/16 04:36:39;;;;;;;8.70;4.40;;;;;;;-128.00;-1.00;-1.00;97891;285;1003625;-35
2023/07/16 04:39:04;;;;;;;7.40;5.30;;;;;;;-128.00;-1.00;-1.00;97805;296;1004236;-31
2023/07/16 04:41:30;;;;;;;6.00;5.10;;;;;;;-128.00;-1.00;-1.00;97867;296;1003286;-37
2023/07/16 04:43:56;;;;;;;5.80;5.30;;;;;;;-128.00;-1.00;-1.00;97789;296;1003450;-33
2023/07/16 04:46:22;;;;;;;5.50;5.00;;;;;;;-128.00;-1.00;-1.00;97777;285;1004504;-35
2023/07/16 04:48:47;;;;;;;5.70;5.20;;;;;;;-128.00;-1.00;-1.00;97862;296;1005107;-32
2023/07/16 04:51:13;;;;;;;4.40;4.00;;;;;;;-128.00;-1.00;-1.00;97774;285;1003417;-31
2023/07/16 04:53:39;;;;;;;8.90;5.70;;;;;;;-128.00;-1.00;-1.00;97826;285;1002892;-31
2023/07/16 04:56:10;;;;;;;6.90;5.50;;;;;;;-128.00;-1.00;-1.00;97809;297;1003484;-30
2023/07/16 04:58:35;;;;;;;5.00;4.60;;;;;;;-128.00;-1.00;-1.00;97865;296;1003081;-31
2023/07/16 05:01:01;;;;;;;5.90;4.40;;;;;;;-128.00;-1.00;-1.00;97786;285;1003706;-37
2023/07/16 05:03:27;;;;;;;5.50;5.10;;;;;;;-128.00;-1.00;-1.00;97835;285;1003284;-37
2023/07/16 05:05:52;;;;;;;5.20;4.60;;;;;;;-128.00;-1.00;-1.00;97819;285;1002887;-34
2023/07/16 05:08:18;;;;;;;5.50;5.00;;;;;;;-128.00;-1.00;-1.00;97807;285;1002890;-33
2023/07/16 05:10:43;;;;;;;7.60;4.60;;;;;;;-128.00;-1.00;-1.00;97809;297;1002998;-32
2023/07/16 05:13:09;;;;;;;12.40;4.60;;;;;;;-128.00;-1.00;-1.00;97819;297;1003065;-31
2023/07/16 05:15:34;;;;;;;8.60;4.60;;;;;;;-128.00;-1.00;-1.00;97725;296;1003928;-37
2023/07/16 05:18:00;;;;;;;6.10;5.60;;;;;;;-128.00;-1.00;-1.00;97731;297;1003613;-32
2023/07/16 05:20:25;;;;;;;5.10;4.60;;;;;;;-128.00;-1.00;-1.00;97840;296;1004105;-35
2023/07/16 05:22:51;;;;;;;10.20;5.00;;;;;;;-128.00;-1.00;-1.00;97833;285;1004657;-35
2023/07/16 05:25:17;;;;;;;4.50;4.10;;;;;;;-128.00;-1.00;-1.00;97843;297;1003843;-35
2023/07/16 05:27:42;;;;;;;5.10;4.50;;;;;;;-128.00;-1.00;-1.00;97770;297;1003616;-31
2023/07/16 05:30:08;;;;;;;6.00;5.30;;;;;;;-128.00;-1.00;-1.00;97849;297;1003470;-35
2023/07/16 05:32:35;;;;;;;10.10;4.10;;;;;;;-128.00;-1.00;-1.00;97712;297;1002379;-31
2023/07/16 05:35:00;;;;;;;4.60;4.20;;;;;;;-128.00;-1.00;-1.00;97875;285;1003482;-35
2023/07/16 05:37:26;;;;;;;6.80;3.90;;;;;;;-128.00;-1.00;-1.00;97812;296;1004029;-31
2023/07/16 05:39:51;;;;;;;4.50;4.10;;;;;;;-128.00;-1.00;-1.00;97762;297;1003542;-31
2023/07/16 05:42:17;;;;;;;8.10;5.80;;;;;;;-128.00;-1.00;-1.00;97837;296;1003356;-35
2023/07/16 05:44:44;;;;;;;5.00;4.50;;;;;;;-128.00;-1.00;-1.00;97864;296;1002868;-37
2023/07/16 05:47:10;;;;;;;4.70;4.20;;;;;;;-128.00;-1.00;-1.00;97831;285;1004574;-32
2023/07/16 05:49:35;;;;;;;9.90;3.80;;;;;;;-128.00;-1.00;-1.00;97840;296;1003609;-38
2023/07/16 05:52:01;;;;;;;5.00;3.90;;;;;;;-128.00;-1.00;-1.00;97836;296;1003150;-37
2023/07/16 05:54:27;;;;;;;4.30;4.00;;;;;;;-128.00;-1.00;-1.00;97863;297;1003170;-33
2023/07/16 05:56:53;;;;;;;11.20;4.00;;;;;;;-128.00;-1.00;-1.00;97866;296;1003777;-36
2023/07/16 05:59:19;;;;;;;5.40;3.70;;;;;;;-128.00;-1.00;-1.00;97882;285;1004760;-32
2023/07/16 06:01:44;;;;;;;5.60;3.60;;;;;;;-128.00;-1.00;-1.00;97864;285;1004300;-34
2023/07/16 06:04:10;;;;;;;4.20;3.10;;;;;;;-128.00;-1.00;-1.00;97846;285;1002734;-36
2023/07/16 06:06:35;;;;;;;3.80;3.50;;;;;;;-128.00;-1.00;-1.00;97903;297;1003707;-35
2023/07/16 06:09:01;;;;;;;3.60;3.20;;;;;;;-128.00;-1.00;-1.00;97851;297;1003293;-32
2023/07/16 06:11:27;;;;;;;6.80;2.90;;;;;;;-128.00;-1.00;-1.00;97803;296;1004280;-36
2023/07/16 06:13:54;;;;;;;2.70;2.50;;;;;;;-128.00;-1.00;-1.00;97782;285;1003265;-36
2023/07/16 06:16:20;;;;;;;2.80;2.50;;;;;;;-128.00;-1.00;-1.00;97956;296;1003243;-33
2023/07/16 06:18:46;;;;;;;1.80;1.70;;;;;;;-128.00;-1.00;-1.00;97842;297;1003433;-37
2023/07/16 06:21:12;;;;;;;3.80;2.10;;;;;;;-128.00;-1.00;-1.00;97937;285;1003401;-37
2023/07/16 06:23:38;;;;;;;6.70;3.30;;;;;;;-128.00;-1.00;-1.00;97908;285;1004097;-37
2023/07/16 06:26:04;;;;;;;2.00;1.80;;;;;;;-128.00;-1.00;-1.00;97762;296;1003468;-31
2023/07/16 06:28:29;;;;;;;14.20;2.60;;;;;;;-128.00;-1.00;-1.00;97817;285;1003865;-31
2023/07/16 06:30:55;;;;;;;3.80;2.30;;;;;;;-128.00;-1.00;-1.00;97850;285;1003103;-33
2023/07/16 06:33:20;;;;;;;3.60;1.90;;;;;;;-128.00;-1.00;-1.00;97790;285;1003289;-36
2023/07/16 06:35:47;;;;;;;4.70;1.90;;;;;;;-128.00;-1.00;-1.00;97908;285;1004579;-36
2023/07/16 06:38:13;;;;;;;2.70;1.90;;;;;;;-128.00;-1.00;-1.00;97867;285;1002572;-35
2023/07/16 06:40:39;;;;;;;1.90;1.20;;;;;;;-128.00;-1.00;-1.00;97908;285;1004797;-32
2023/07/16 06:43:05;;;;;;;1.10;1.00;;;;;;;-128.00;-1.00;-1.00;97870;297;1002561;-31
2023/07/16 06:45:30;;;;;;;8.10;1.60;;;;;;;-128.00;-1.00;-1.00;97880;285;1003456;-32
2023/07/16 06:47:56;;;;;;;1.00;1.00;;;;;;;-128.00;-1.00;-1.00;97811;285;1003068;-36
2023/07/16 06:50:21;;;;;;;1.50;1.20;;;;;;;-128.00;-1.00;-1.00;97768;285;1003181;-37
2023/07/16 06:52:47;;;;;;;0.70;0.60;;;;;;;-128.00;-1.00;-1.00;97783;296;1002961;-36
2023/07/16 06:55:13;;;;;;;1.70;0.90;;;;;;;-128.00;-1.00;-1.00;97763;297;1004044;-36
2023/07/16 06:57:38;;;;;;;2.40;1.00;;;;;;;-128.00;-1.00;-1.00;97797;285;1003998;-35
2023/07/16 07:00:06;;;;;;;0.90;0.60;;;;;;;-128.00;-1.00;-1.00;97807;285;1003983;-31
2023/07/16 07:02:31;;;;;;;1.80;0.80;;;;;;;-128.00;-1.00;-1.00;97860;297;1002797;-35
2023/07/16 07:04:59;;;;;;;1.20;0.70;;;;;;;-128.00;-1.00;-1.00;97796;285;1002912;-36
2023/07/16 07:07:25;;;;;;;0.80;0.70;;;;;;;-128.00;-1.00;-1.00;97842;297;1003295;-36
2023/07/16 07:09:50;;;;;;;4.10;1.00;;;;;;;-128.00;-1.00;-1.00;97827;296;1004393;-36
2023/07/16 07:12:16;;;;;;;1.90;0.80;;;;;;;-128.00;-1.00;-1.00;97783;285;1002747;-35
2023/07/16 07:14:42;;;;;;;1.00;0.60;;;;;;;-128.00;-1.00;-1.00;97812;289;1004502;-32
2023/07/16 07:17:07;;;;;;;2.80;1.00;;;;;;;-128.00;-1.00;-1.00;97858;285;1002681;-35
2023/07/16 07:19:33;;;;;;;1.90;1.00;;;;;;;-128.00;-1.00;-1.00;97916;285;1004175;-32
2023/07/16 07:21:59;;;;;;;1.00;0.90;;;;;;;-128.00;-1.00;-1.00;97723;297;1004412;-31
2023/07/16 07:24:24;;;;;;;3.20;0.90;;;;;;;-128.00;-1.00;-1.00;97822;285;1004750;-31
2023/07/16 07:26:50;;;;;;;3.80;1.10;;;;;;;-128.00;-1.00;-1.00;97901;296;1003639;-35
2023/07/16 07:29:16;;;;;;;1.40;1.00;;;;;;;-128.00;-1.00;-1.00;97779;285;1003482;-40
2023/07/16 07:31:41;;;;;;;1.30;0.60;;;;;;;-128.00;-1.00;-1.00;97788;285;1003168;-32
2023/07/16 07:34:07;;;;;;;1.00;0.50;;;;;;;-128.00;-1.00;-1.00;97807;296;1003183;-36
2023/07/16 07:36:33;;;;;;;1.30;0.90;;;;;;;-128.00;-1.00;-1.00;97818;285;1004120;-36
2023/07/16 07:38:58;;;;;;;1.90;0.90;;;;;;;-128.00;-1.00;-1.00;97766;296;1003716;-30
2023/07/16 07:41:24;;;;;;;2.40;0.80;;;;;;;-128.00;-1.00;-1.00;97827;297;1004302;-32
2023/07/16 07:43:51;;;;;;;2.80;1.20;;;;;;;-128.00;-1.00;-1.00;97867;285;1002845;-34
2023/07/16 07:46:17;;;;;;;2.50;0.90;;;;;;;-128.00;-1.00;-1.00;97859;296;1004013;-37
2023/07/16 07:48:43;;;;;;;3.30;0.90;;;;;;;-128.00;-1.00;-1.00;97830;296;1005679;-36
2023/07/16 07:51:08;;;;;;;2.30;0.90;;;;;;;-128.00;-1.00;-1.00;97760;285;1004057;-34
2023/07/16 07:53:34;;;;;;;2.40;1.10;;;;;;;-128.00;-1.00;-1.00;97760;285;1003455;-32
2023/07/16 07:56:00;;;;;;;1.70;1.30;;;;;;;-128.00;-1.00;-1.00;97812;296;1002965;-33
2023/07/16 07:58:25;;;;;;;2.00;1.30;;;;;;;-128.00;-1.00;-1.00;97785;285;1003060;-36
2023/07/16 08:00:51;;;;;;;1.10;0.80;;;;;;;-128.00;-1.00;-1.00;97799;297;1003642;-32
2023/07/16 08:03:16;;;;;;;2.30;1.50;;;;;;;-128.00;-1.00;-1.00;97900;285;1004115;-32
2023/07/16 08:05:42;;;;;;;2.60;0.90;;;;;;;-128.00;-1.00;-1.00;97845;285;1004274;-32
2023/07/16 08:08:08;;;;;;;1.10;0.90;;;;;;;-128.00;-1.00;-1.00;97855;296;1003089;-33
2023/07/16 08:10:33;;;;;;;1.40;1.20;;;;;;;-128.00;-1.00;-1.00;97745;285;1003938;-32
2023/07/16 08:12:59;;;;;;;1.30;0.80;;;;;;;-128.00;-1.00;-1.00;97709;285;1003095;-34
2023/07/16 08:15:25;;;;;;;0.80;0.60;;;;;;;-128.00;-1.00;-1.00;97705;285;1003730;-35
2023/07/16 08:17:50;;;;;;;1.50;1.00;;;;;;;-128.00;-1.00;-1.00;97798;285;1003188;-32
2023/07/16 08:20:17;;;;;;;2.20;1.20;;;;;;;-128.00;-1.00;-1.00;97824;285;1002954;-35
2023/07/16 08:22:43;;;;;;;3.50;1.20;;;;;;;-128.00;-1.00;-1.00;97858;284;1005352;-31
2023/07/16 08:25:09;;;;;;;1.20;0.70;;;;;;;-128.00;-1.00;-1.00;97729;297;1003141;-35
2023/07/16 08:27:34;;;;;;;0.70;0.50;;;;;;;-128.00;-1.00;-1.00;97809;284;1002851;-34
2023/07/16 08:30:00;;;;;;;0.60;0.60;;;;;;;-128.00;-1.00;-1.00;97786;285;1003738;-37
2023/07/16 08:32:26;;;;;;;2.40;1.20;;;;;;;-128.00;-1.00;-1.00;97823;296;1003771;-32
2023/07/16 08:34:51;;;;;;;1.70;0.60;;;;;;;-128.00;-1.00;-1.00;97862;285;1003504;-32
2023/07/16 08:37:17;;;;;;;0.60;0.60;;;;;;;-128.00;-1.00;-1.00;97801;285;1004118;-38
2023/07/16 08:39:42;;;;;;;0.90;0.40;;;;;;;-128.00;-1.00;-1.00;97811;285;1005647;-32
2023/07/16 08:42:09;;;;;;;0.70;0.60;;;;;;;-128.00;-1.00;-1.00;97768;285;1003362;-35
2023/07/16 08:44:37;;;;;;;1.60;1.30;;;;;;;-128.00;-1.00;-1.00;97871;296;1002916;-36
2023/07/16 08:47:03;;;;;;;1.20;0.60;;;;;;;-128.00;-1.00;-1.00;97916;285;1003502;-32
2023/07/16 08:49:29;;;;;;;1.30;0.90;;;;;;;-128.00;-1.00;-1.00;97863;285;1002401;-33
2023/07/16 08:51:55;;;;;;;1.20;0.80;;;;;;;-128.00;-1.00;-1.00;97795;296;1002963;-31
2023/07/16 08:54:21;;;;;;;0.80;0.50;;;;;;;-128.00;-1.00;-1.00;97802;296;1004356;-31
2023/07/16 08:56:47;;;;;;;2.60;1.20;;;;;;;-128.00;-1.00;-1.00;97752;286;1002801;-32
2023/07/16 08:59:14;;;;;;;0.80;0.60;;;;;;;-128.00;-1.00;-1.00;97879;296;1002626;-35
2023/07/16 09:01:40;;;;;;;1.70;0.50;;;;;;;-128.00;-1.00;-1.00;97840;296;1003238;-35
2023/07/16 09:04:05;;;;;;;1.20;1.00;;;;;;;-128.00;-1.00;-1.00;97636;297;1002662;-35
2023/07/16 09:06:31;;;;;;;1.30;0.70;;;;;;;-128.00;-1.00;-1.00;97826;285;1003215;-37
2023/07/16 09:08:57;;;;;;;2.20;0.70;;;;;;;-128.00;-1.00;-1.00;97808;297;1003392;-32
2023/07/16 09:11:22;;;;;;;1.40;0.70;;;;;;;-128.00;-1.00;-1.00;97836;285;1003518;-35
2023/07/16 09:13:49;;;;;;;1.10;0.70;;;;;;;-128.00;-1.00;-1.00;97819;297;1003229;-31
2023/07/16 09:16:16;;;;;;;1.20;0.80;;;;;;;-128.00;-1.00;-1.00;97794;296;1003266;-34
2023/07/16 09:18:42;;;;;;;1.20;0.80;;;;;;;-128.00;-1.00;-1.00;97808;296;1003376;-35
2023/07/16 09:21:08;;;;;;;2.30;0.80;;;;;;;-128.00;-1.00;-1.00;97361;285;1003282;-31
2023/07/16 09:23:33;;;;;;;0.60;0.60;;;;;;;-128.00;-1.00;-1.00;97781;297;1003834;-38
2023/07/16 09:25:59;;;;;;;1.00;0.70;;;;;;;-128.00;-1.00;-1.00;97900;296;1003172;-32
2023/07/16 09:28:25;;;;;;;1.50;0.70;;;;;;;-128.00;-1.00;-1.00;97817;285;1003809;-32
2023/07/16 09:30:51;;;;;;;1.60;0.90;;;;;;;-128.00;-1.00;-1.00;97800;289;1002967;-36
2023/07/16 09:33:21;;;;;;;0.50;0.30;;;;;;;-128.00;-1.00;-1.00;97809;296;1003261;-32
2023/07/16 09:35:50;;;;;;;0.40;0.30;;;;;;;-128.00;-1.00;-1.00;97876;285;1003859;-32
2023/07/16 09:38:16;;;;;;;0.90;0.50;;;;;;;-128.00;-1.00;-1.00;97787;285;1003631;-32
2023/07/16 09:40:44;;;;;;;0.70;0.70;;;;;;;-128.00;-1.00;-1.00;97804;285;1003275;-32
2023/07/16 09:43:11;;;;;;;1.80;0.40;;;;;;;-128.00;-1.00;-1.00;97858;285;1003417;-32
2023/07/16 09:45:37;;;;;;;0.30;0.30;;;;;;;-128.00;-1.00;-1.00;97851;285;1003161;-31
2023/07/16 09:48:03;;;;;;;1.20;0.70;;;;;;;-128.00;-1.00;-1.00;97846;285;1004004;-32
2023/07/16 09:50:30;;;;;;;1.00;0.60;;;;;;;-128.00;-1.00;-1.00;97896;285;1003342;-38
2023/07/16 09:52:56;;;;;;;0.50;0.30;;;;;;;-128.00;-1.00;-1.00;97798;297;1002471;-31
2023/07/16 09:55:23;;;;;;;0.80;0.50;;;;;;;-128.00;-1.00;-1.00;97858;296;1004326;-37
2023/07/16 09:57:48;;;;;;;0.90;0.50;;;;;;;-128.00;-1.00;-1.00;97804;285;1003028;-35
2023/07/16 10:00:14;;;;;;;5.50;0.60;;;;;;;-128.00;-1.00;-1.00;97755;285;1004071;-37
2023/07/16 10:02:40;;;;;;;1.80;0.70;;;;;;;-128.00;-1.00;-1.00;97722;285;1003335;-35
2023/07/16 10:05:19;;;;;;;0.90;0.60;;;;;;;-128.00;-1.00;-1.00;97775;285;1003968;-35
2023/07/16 10:07:52;;;;;;;1.00;0.50;;;;;;;-128.00;-1.00;-1.00;97819;297;1004718;-38
2023/07/16 10:10:18;;;;;;;0.70;0.70;;;;;;;-128.00;-1.00;-1.00;97755;285;1002881;-31
2023/07/16 10:12:56;;;;;;;2.60;0.50;;;;;;;-128.00;-1.00;-1.00;97831;285;1002581;-31
2023/07/16 10:15:27;;;;;;;0.80;0.60;;;;;;;-128.00;-1.00;-1.00;97787;296;1003512;-32
2023/07/16 10:17:53;;;;;;;0.50;0.50;;;;;;;-128.00;-1.00;-1.00;97826;289;1002855;-35
2023/07/16 10:20:28;;;;;;;0.70;0.60;;;;;;;-128.00;-1.00;-1.00;97901;285;1003111;-36
2023/07/16 10:22:54;;;;;;;0.90;0.50;;;;;;;-128.00;-1.00;-1.00;97789;296;1003299;-31
2023/07/16 10:25:26;;;;;;;0.90;0.40;;;;;;;-128.00;-1.00;-1.00;97792;285;1003282;-32
2023/07/16 10:27:52;;;;;;;;;;;;;;;-128.00;-1.00;-1.00;97911;296;1003309;-32
2023/07/16 10:30:18;;;;;;;0.90;0.60;;;;;;;-128.00;-1.00;-1.00;97876;285;1002471;-36
2023/07/16 10:32:43;;;;;;;2.30;0.60;;;;;;;-128.00;-1.00;-1.00;97819;285;1002969;-36
2023/07/16 10:35:10;;;;;;;0.40;0.30;;;;;;;-128.00;-1.00;-1.00;97868;285;1002897;-32
2023/07/16 10:37:35;;;;;;;0.90;0.50;;;;;;;-128.00;-1.00;-1.00;97821;285;1004975;-32
2023/07/16 10:40:05;;;;;;;0.60;0.50;;;;;;;-128.00;-1.00;-1.00;97834;296;1003660;-34
2023/07/16 10:42:31;;;;;;;1.10;1.00;;;;;;;-128.00;-1.00;-1.00;97790;285;1003778;-32
2023/07/16 10:45:01;;;;;;;2.40;0.80;;;;;;;-128.00;-1.00;-1.00;97878;285;1005464;-33
2023/07/16 10:47:34;;;;;;;74.30;49.10;;;;;;;-128.00;-1.00;-1.00;97884;285;1004702;-31
2023/07/16 10:50:00;;;;;;;26.10;16.70;;;;;;;-128.00;-1.00;-1.00;97750;285;1003162;-35
2023/07/16 10:52:25;;;;;;;1.90;0.80;;;;;;;-128.00;-1.00;-1.00;97799;285;1002867;-36
2023/07/16 10:54:54;;;;;;;0.60;0.60;;;;;;;-128.00;-1.00;-1.00;97838;296;1003455;-35
2023/07/16 10:57:21;;;;;;;0.90;0.50;;;;;;;-128.00;-1.00;-1.00;97842;297;1002960;-35
2023/07/16 10:59:48;;;;;;;2.50;2.30;;;;;;;-128.00;-1.00;-1.00;97798;296;1003163;-35
2023/07/16 11:02:14;;;;;;;1.10;0.90;;;;;;;-128.00;-1.00;-1.00;97903;296;1003264;-31
2023/07/16 11:04:40;;;;;;;4.30;0.90;;;;;;;-128.00;-1.00;-1.00;97794;285;1002444;-32
2023/07/16 11:07:08;;;;;;;3.70;0.60;;;;;;;-128.00;-1.00;-1.00;97728;285;1003626;-35
2023/07/16 11:09:40;;;;;;;0.80;0.60;;;;;;;-128.00;-1.00;-1.00;97893;285;1002936;-35
2023/07/16 11:12:07;;;;;;;0.40;0.30;;;;;;;-128.00;-1.00;-1.00;97911;296;1002882;-35
2023/07/16 11:14:33;;;;;;;0.40;0.40;;;;;;;-128.00;-1.00;-1.00;97823;285;1004380;-36
2023/07/16 11:17:09;;;;;;;1.30;0.70;;;;;;;-128.00;-1.00;-1.00;97803;285;1002668;-34
2023/07/16 11:19:35;;;;;;;1.90;0.70;;;;;;;-128.00;-1.00;-1.00;101101;297;1002541;-36
2023/07/16 11:24:28;;;;;;;0.70;0.60;;;;;;;;;;100780;300;543418;-36
2023/07/16 11:26:54;;;;;;;0.30;0.30;;;;;;;;;;100968;302;22585;-32
2023/07/16 11:29:19;;;;;;;1.20;0.60;;;;;;;;;;100953;290;22608;-33
2023/07/16 11:31:48;;;;;;;0.50;0.50;;;;;;;;;;101046;302;23131;-31
2023/07/16 11:34:14;;;;;;;0.80;0.80;;;;;;;;;;101050;303;22677;-31
2023/07/16 11:36:39;;;;;;;0.80;0.70;;;;;;;;;;101169;302;24243;-32
2023/07/16 11:39:05;;;;;;;0.60;0.60;;;;;;;;;;100753;301;549324;-31
2023/07/16 11:41:30;;;;;;;0.70;0.50;;;;;;;;;;101141;300;22584;-35
2023/07/16 11:44:00;;;;;;;1.80;0.50;;;;;;;;;;101323;300;22680;-31
2023/07/16 11:46:30;;;;;;;0.50;0.50;;;;;;;;;;101096;300;23845;-37
2023/07/16 11:48:55;;;;;;;1.10;0.50;;;;;;;;;;101350;300;22892;-35
2023/07/16 11:51:21;;;;;;;0.70;0.70;;;;;;;;;;101368;300;22607;-31
2023/07/16 11:53:46;;;;;;;1.00;0.40;;;;;;;;;;101072;300;22720;-34
2023/07/16 11:56:12;;;;;;;0.70;0.50;;;;;;;;;;101034;300;24042;-31
2023/07/16 11:58:37;;;;;;;0.70;0.40;;;;;;;;;;101096;289;23017;-37
2023/07/16 12:01:03;;;;;;;1.40;0.40;;;;;;;;;;101162;289;22993;-37
2023/07/16 12:03:28;;;;;;;2.10;0.30;;;;;;;;;;101094;289;22576;-33
2023/07/16 12:05:54;;;;;;;2.50;0.70;;;;;;;;;;101150;289;22535;-33
2023/07/16 12:08:19;;;;;;;0.60;0.50;;;;;;;;;;101071;301;24122;-37
2023/07/16 12:10:45;;;;;;;1.70;0.60;;;;;;;;;;101248;289;22679;-42
2023/07/16 12:13:10;;;;;;;0.90;0.60;;;;;;;;;;101112;300;24251;-32
2023/07/16 12:15:36;;;;;;;10.00;3.20;;;;;;;;;;100992;301;22593;-32
2023/07/16 12:18:01;;;;;;;1.60;0.60;;;;;;;;;;101351;289;24189;-36
2023/07/16 12:20:27;;;;;;;1.50;1.00;;;;;;;;;;101108;301;24312;-36
2023/07/16 12:22:53;;;;;;;2.60;1.40;;;;;;;;;;101079;289;22591;-34
2023/07/16 12:25:18;;;;;;;1.00;0.70;;;;;;;;;;100958;301;22580;-32